Time;durP1;ratioP1;P1;durP2;ratioP2;P2;SDS_P1;SDS_P2;PMS_P1;PMS_P2;Temp;Humidity;BMP_temperature;BMP_pressure;BME280_temperature;BME280_humidity;BME280_pressure;Samples;Min_cycle;Max_cycle;Signal;HPM_P1;HPM_P2
2023/11/15 00:01:39;0.00;0.00;0.62;0.00;0.00;0.62;2.50;1.60;;;22.60;29.90;;;;;;2256519;61;20366;-60
2023/11/15 00:04:24;0.00;0.00;0.62;0.00;0.00;0.62;3.23;1.43;;;22.60;29.90;;;;;;2256812;61;20389;-61
2023/11/15 00:07:09;0.00;0.00;0.62;0.00;0.00;0.62;2.47;1.40;;;22.60;29.90;;;;;;2256447;61;20450;-58
2023/11/15 00:09:53;0.00;0.00;0.62;0.00;0.00;0.62;2.03;1.17;;;22.60;29.90;;;;;;2256803;61;20389;-58
2023/11/15 00:12:38;0.00;0.00;0.62;0.00;0.00;0.62;1.97;1.40;;;22.60;29.90;;;;;;2256627;61;20378;-56
2023/11/15 00:15:24;0.00;0.00;0.62;0.00;0.00;0.62;2.30;1.47;;;22.70;29.90;;;;;;2256326;61;20896;-58
2023/11/15 00:18:10;0.00;0.00;0.62;0.00;0.00;0.62;2.60;1.47;;;22.60;29.90;;;;;;2251519;61;20390;-59
2023/11/15 00:20:55;0.00;0.00;0.62;0.00;0.00;0.62;1.90;1.20;;;22.60;29.90;;;;;;2257047;61;20401;-58
2023/11/15 00:23:39;0.00;0.00;0.62;0.00;0.00;0.62;1.67;1.13;;;22.60;29.90;;;;;;2257109;61;20350;-61
2023/11/15 00:26:24;0.00;0.00;0.62;0.00;0.00;0.62;1.93;1.27;;;22.60;29.90;;;;;;2254226;61;20362;-59
2023/11/15 00:29:11;0.00;0.00;0.62;0.00;0.00;0.62;3.40;1.80;;;22.60;29.90;;;;;;2257108;61;20370;-58
2023/11/15 00:31:55;0.00;0.00;0.62;0.00;0.00;0.62;2.23;1.30;;;22.60;29.90;;;;;;2253991;61;20365;-58
2023/11/15 00:34:42;0.00;0.00;0.62;0.00;0.00;0.62;2.53;1.63;;;22.60;29.90;;;;;;2257736;61;20370;-60
2023/11/15 00:37:26;0.00;0.00;0.62;0.00;0.00;0.62;2.33;1.50;;;22.60;29.90;;;;;;2251211;61;20455;-57
2023/11/15 00:40:15;0.00;0.00;0.62;0.00;0.00;0.62;2.47;1.60;;;22.60;29.90;;;;;;2257271;61;20428;-60
2023/11/15 00:43:00;0.00;0.00;0.62;0.00;0.00;0.62;2.10;1.50;;;22.60;29.90;;;;;;2256538;61;20776;-53
2023/11/15 00:45:44;0.00;0.00;0.62;0.00;0.00;0.62;2.50;1.43;;;22.60;30.00;;;;;;2257277;61;20842;-57
2023/11/15 00:48:29;0.00;0.00;0.62;0.00;0.00;0.62;1.90;1.50;;;22.60;30.00;;;;;;2257116;61;20361;-60
2023/11/15 00:51:15;0.00;0.00;0.62;0.00;0.00;0.62;2.03;1.60;;;22.60;29.90;;;;;;2253713;61;20393;-59
2023/11/15 00:53:59;0.00;0.00;0.62;0.00;0.00;0.62;2.70;1.87;;;22.70;30.00;;;;;;2257250;61;20416;-60
2023/11/15 00:56:44;0.00;0.00;0.62;0.00;0.00;0.62;3.27;2.23;;;22.60;29.90;;;;;;2254063;61;20899;-59
2023/11/15 00:59:36;0.00;0.00;0.62;0.00;0.00;0.62;3.67;1.80;;;22.60;29.90;;;;;;2251205;61;20410;-61
2023/11/15 01:02:22;0.00;0.00;0.62;0.00;0.00;0.62;3.20;1.83;;;22.60;29.90;;;;;;2257072;61;20412;-60
2023/11/15 01:05:08;0.00;0.00;0.62;0.00;0.00;0.62;5.77;1.93;;;22.60;29.90;;;;;;2253664;61;20389;-61
2023/11/15 01:07:54;0.00;0.00;0.62;0.00;0.00;0.62;2.60;2.10;;;22.60;29.90;;;;;;2257398;61;20412;-60
2023/11/15 01:10:39;0.00;0.00;0.62;0.00;0.00;0.62;4.00;2.00;;;22.70;29.90;;;;;;2254012;61;20393;-60
2023/11/15 01:13:24;0.00;0.00;0.62;0.00;0.00;0.62;2.83;1.87;;;22.70;29.90;;;;;;2256845;61;20393;-60
2023/11/15 01:16:09;0.00;0.00;0.62;0.00;0.00;0.62;3.33;2.00;;;22.70;29.90;;;;;;2257212;61;20446;-59
2023/11/15 01:18:53;0.00;0.00;0.62;0.00;0.00;0.62;3.40;1.90;;;22.60;29.80;;;;;;2253939;61;20797;-61
2023/11/15 01:21:38;0.00;0.00;0.62;0.00;0.00;0.62;2.40;1.60;;;22.60;29.80;;;;;;2256651;61;20420;-57
2023/11/15 01:24:24;0.00;0.00;0.62;0.00;0.00;0.62;3.17;2.23;;;22.60;29.80;;;;;;2257305;61;20393;-61
2023/11/15 01:27:08;0.00;0.00;0.62;0.00;0.00;0.62;2.50;1.50;;;22.70;29.90;;;;;;2254084;61;20911;-56
2023/11/15 01:29:53;0.00;0.00;0.62;0.00;0.00;0.62;3.03;1.90;;;22.70;29.90;;;;;;2257604;61;21045;-60
2023/11/15 01:32:38;0.00;0.00;0.62;0.00;0.00;0.62;3.23;2.07;;;22.70;29.90;;;;;;2257227;61;20361;-61
2023/11/15 01:35:23;0.00;0.00;0.62;0.00;0.00;0.62;3.60;1.90;;;22.70;29.90;;;;;;2257034;61;20794;-60
2023/11/15 01:38:08;0.00;0.00;0.62;0.00;0.00;0.62;2.70;1.50;;;22.70;29.80;;;;;;2257168;61;20450;-59
2023/11/15 01:40:53;0.00;0.00;0.62;0.00;0.00;0.62;4.00;2.00;;;22.70;29.80;;;;;;2254086;61;20386;-60
2023/11/15 01:43:39;0.00;0.00;0.62;0.00;0.00;0.62;3.47;2.47;;;22.70;29.80;;;;;;2256741;61;20369;-58
2023/11/15 01:46:24;0.00;0.00;0.62;0.00;0.00;0.62;3.10;2.00;;;22.70;29.80;;;;;;2257807;61;20370;-56
2023/11/15 01:49:08;0.00;0.00;0.62;0.00;0.00;0.62;4.43;2.17;;;22.70;29.80;;;;;;2251213;61;20368;-59
2023/11/15 01:51:54;0.00;0.00;0.62;0.00;0.00;0.62;4.60;1.93;;;22.70;29.80;;;;;;2257029;61;20410;-61
2023/11/15 01:54:39;0.00;0.00;0.62;0.00;0.00;0.62;3.60;2.47;;;22.70;29.80;;;;;;2257029;61;20365;-58
2023/11/15 01:57:25;0.00;0.00;0.62;0.00;0.00;0.62;2.97;2.30;;;22.70;29.80;;;;;;2253818;61;20770;-61
2023/11/15 02:00:14;0.00;0.00;0.62;0.00;0.00;0.62;3.37;2.07;;;22.60;29.80;;;;;;2254079;61;20973;-61
2023/11/15 02:02:59;0.00;0.00;0.62;0.00;0.00;0.62;2.90;1.63;;;22.70;29.80;;;;;;2253967;61;20397;-59
2023/11/15 02:05:46;0.00;0.00;0.62;0.00;0.00;0.62;2.67;1.43;;;22.60;29.70;;;;;;2256907;61;20805;-59
2023/11/15 02:08:30;0.00;0.00;0.62;0.00;0.00;0.62;2.63;1.50;;;22.60;29.80;;;;;;2257218;61;20436;-59
2023/11/15 02:11:15;0.00;0.00;0.62;0.00;0.00;0.62;2.30;1.73;;;22.60;29.70;;;;;;2257149;61;20966;-60
2023/11/15 02:14:03;0.00;0.00;0.62;0.00;0.00;0.62;2.77;1.80;;;22.60;29.80;;;;;;2253730;61;20466;-61
2023/11/15 02:16:51;0.00;0.00;0.62;0.00;0.00;0.62;3.20;2.07;;;22.60;29.80;;;;;;2257141;61;20374;-57
2023/11/15 02:19:37;0.00;0.00;0.62;0.00;0.00;0.62;3.40;1.60;;;22.60;29.80;;;;;;2253920;61;21008;-59
2023/11/15 02:22:22;0.00;0.00;0.62;0.00;0.00;0.62;3.53;1.83;;;22.60;29.80;;;;;;2256714;61;20393;-60
2023/11/15 02:25:09;0.00;0.00;0.62;0.00;0.00;0.62;3.57;1.50;;;22.60;29.70;;;;;;2255495;61;20808;-61
2023/11/15 02:27:54;0.00;0.00;0.62;0.00;0.00;0.62;3.00;1.80;;;22.60;29.80;;;;;;2492956;53;20416;-58
2023/11/15 02:30:39;0.00;0.00;0.62;0.00;0.00;0.62;2.87;1.90;;;22.60;29.80;;;;;;2258055;61;20436;-64
2023/11/15 02:33:23;0.00;0.00;0.62;0.00;0.00;0.62;2.00;1.33;;;22.60;29.80;;;;;;2257451;61;21008;-59
2023/11/15 02:36:08;0.00;0.00;0.62;0.00;0.00;0.62;2.70;1.67;;;22.60;29.80;;;;;;2254408;61;20775;-62
2023/11/15 02:38:53;0.00;0.00;0.62;0.00;0.00;0.62;2.53;1.60;;;22.60;29.80;;;;;;2257727;61;20384;-60
2023/11/15 02:41:39;0.00;0.00;0.62;0.00;0.00;0.62;2.50;1.50;;;22.60;29.80;;;;;;2256885;61;20351;-61
2023/11/15 02:44:25;0.00;0.00;0.62;0.00;0.00;0.62;2.97;1.63;;;22.60;29.80;;;;;;2257939;61;20465;-59
2023/11/15 02:47:09;0.00;0.00;0.62;0.00;0.00;0.62;2.03;1.37;;;22.60;29.80;;;;;;2257867;61;20369;-61
2023/11/15 02:49:54;0.00;0.00;0.62;0.00;0.00;0.62;2.97;1.83;;;22.60;29.80;;;;;;2254386;61;20441;-62
2023/11/15 02:52:40;0.00;0.00;0.62;0.00;0.00;0.62;2.57;1.40;;;22.60;29.80;;;;;;2257676;61;20961;-60
2023/11/15 02:55:24;0.00;0.00;0.62;0.00;0.00;0.62;2.93;1.40;;;22.60;29.80;;;;;;2257843;61;20817;-58
2023/11/15 02:58:11;0.00;0.00;0.62;0.00;0.00;0.62;2.80;1.63;;;22.60;29.80;;;;;;2257294;61;20366;-60
2023/11/15 03:00:56;0.00;0.00;0.62;0.00;0.00;0.62;3.10;1.70;;;22.50;29.70;;;;;;2257654;61;20405;-59
2023/11/15 03:03:41;0.00;0.00;0.62;0.00;0.00;0.62;3.03;1.50;;;22.50;29.70;;;;;;2257120;61;20442;-59
2023/11/15 03:06:25;0.00;0.00;0.62;0.00;0.00;0.62;2.10;1.33;;;22.60;29.80;;;;;;2254258;61;20439;-60
2023/11/15 03:09:10;0.00;0.00;0.62;0.00;0.00;0.62;2.40;1.60;;;22.50;29.70;;;;;;2257937;61;20899;-60
2023/11/15 03:11:55;0.00;0.00;0.62;0.00;0.00;0.62;4.47;1.83;;;22.50;29.70;;;;;;2257088;61;20381;-62
2023/11/15 03:14:41;0.00;0.00;0.62;0.00;0.00;0.62;4.20;2.30;;;22.50;29.80;;;;;;2257751;61;20381;-60
2023/11/15 03:17:25;0.00;0.00;0.62;0.00;0.00;0.62;2.90;1.73;;;22.50;29.80;;;;;;2257724;61;20396;-59
2023/11/15 03:20:10;0.00;0.00;0.62;0.00;0.00;0.62;3.00;1.67;;;22.50;29.80;;;;;;2254225;61;20428;-63
2023/11/15 03:22:55;0.00;0.00;0.62;0.00;0.00;0.62;3.23;2.03;;;22.50;29.80;;;;;;2257335;61;20485;-57
2023/11/15 03:25:40;0.00;0.00;0.62;0.00;0.00;0.62;3.90;1.70;;;22.50;29.80;;;;;;2254385;61;20856;-60
2023/11/15 03:28:25;0.00;0.00;0.62;0.00;0.00;0.62;4.27;2.07;;;22.50;29.80;;;;;;2257582;61;20412;-59
2023/11/15 03:31:13;0.00;0.00;0.62;0.00;0.00;0.62;3.20;1.73;;;22.50;29.80;;;;;;2251879;61;20549;-58
2023/11/15 03:33:58;0.00;0.00;0.62;0.00;0.00;0.62;2.83;1.60;;;22.50;29.80;;;;;;2254105;61;20362;-58
2023/11/15 03:36:43;0.00;0.00;0.62;0.00;0.00;0.62;2.50;1.53;;;22.50;29.80;;;;;;2257785;61;20825;-59
2023/11/15 03:39:28;0.00;0.00;0.62;0.00;0.00;0.62;2.43;1.87;;;22.50;29.80;;;;;;2257688;61;20382;-61
2023/11/15 03:42:13;0.00;0.00;0.62;0.00;0.00;0.62;2.60;1.80;;;22.50;29.80;;;;;;2253997;61;20366;-62
2023/11/15 03:44:58;0.00;0.00;0.62;0.00;0.00;0.62;2.80;1.70;;;22.50;29.80;;;;;;2257512;61;20470;-58
2023/11/15 03:47:44;0.00;0.00;0.62;0.00;0.00;0.62;3.80;2.20;;;22.50;29.80;;;;;;2257622;61;20416;-61
2023/11/15 03:50:28;0.00;0.00;0.62;0.00;0.00;0.62;2.87;2.00;;;22.50;29.80;;;;;;2254428;61;20393;-61
2023/11/15 03:53:13;0.00;0.00;0.62;0.00;0.00;0.62;2.73;2.00;;;22.50;29.80;;;;;;2257978;61;20373;-58
2023/11/15 03:55:57;0.00;0.00;0.62;0.00;0.00;0.62;2.43;1.63;;;22.40;29.80;;;;;;2258052;61;20356;-59
2023/11/15 03:58:42;0.00;0.00;0.62;0.00;0.00;0.62;3.27;1.83;;;22.50;29.80;;;;;;2258310;61;20416;-59
2023/11/15 04:01:27;0.00;0.00;0.62;0.00;0.00;0.62;3.23;1.97;;;22.50;29.80;;;;;;2255026;61;20780;-61
2023/11/15 04:04:13;0.00;0.00;0.62;0.00;0.00;0.62;3.40;2.30;;;22.40;29.80;;;;;;2254463;61;20432;-61
2023/11/15 04:06:58;0.00;0.00;0.62;0.00;0.00;0.62;2.60;1.77;;;22.40;29.80;;;;;;2257943;61;20403;-63
2023/11/15 04:09:42;0.00;0.00;0.62;0.00;0.00;0.62;2.07;1.40;;;22.50;29.80;;;;;;2258344;61;20424;-61
2023/11/15 04:12:27;0.00;0.00;0.62;0.00;0.00;0.62;2.40;1.67;;;22.40;29.80;;;;;;2254448;61;20373;-62
2023/11/15 04:15:12;0.00;0.00;0.62;0.00;0.00;0.62;3.00;1.40;;;22.40;29.80;;;;;;2254701;61;20366;-61
2023/11/15 04:17:56;0.00;0.00;0.62;0.00;0.00;0.62;3.40;1.80;;;22.50;29.80;;;;;;2254462;61;20385;-61
2023/11/15 04:20:43;0.00;0.00;0.62;0.00;0.00;0.62;2.60;1.50;;;22.40;29.80;;;;;;2258347;61;20378;-59
2023/11/15 04:23:27;0.00;0.00;0.62;0.00;0.00;0.62;2.40;1.60;;;22.40;29.80;;;;;;2254579;61;20481;-61
2023/11/15 04:26:12;0.00;0.00;0.62;0.00;0.00;0.62;2.40;1.40;;;22.40;29.80;;;;;;2253976;61;20393;-60
2023/11/15 04:28:57;0.00;0.00;0.62;0.00;0.00;0.62;2.23;1.50;;;22.40;29.80;;;;;;2255054;61;20420;-60
2023/11/15 04:31:41;0.00;0.00;0.62;0.00;0.00;0.62;2.60;1.50;;;22.40;29.80;;;;;;2258140;61;20847;-61
2023/11/15 04:34:26;0.00;0.00;0.62;0.00;0.00;0.62;2.70;1.73;;;22.40;29.80;;;;;;2257368;61;20373;-60
2023/11/15 04:37:12;0.00;0.00;0.62;0.00;0.00;0.62;2.37;1.30;;;22.40;29.80;;;;;;2254965;61;20400;-62
2023/11/15 04:39:57;0.00;0.00;0.62;0.00;0.00;0.62;2.77;1.60;;;22.40;29.80;;;;;;2257879;61;20390;-62
2023/11/15 04:42:41;0.00;0.00;0.62;0.00;0.00;0.62;1.90;1.30;;;22.40;29.80;;;;;;2257679;61;20370;-62
2023/11/15 04:45:26;0.00;0.00;0.62;0.00;0.00;0.62;2.30;1.60;;;22.40;29.80;;;;;;2258151;61;20943;-64
2023/11/15 04:48:10;0.00;0.00;0.62;0.00;0.00;0.62;2.50;1.50;;;22.40;29.80;;;;;;2254657;61;20407;-61
2023/11/15 04:50:57;0.00;0.00;0.62;0.00;0.00;0.62;2.83;1.37;;;22.40;29.80;;;;;;2257902;61;20935;-61
2023/11/15 04:53:43;0.00;0.00;0.62;0.00;0.00;0.62;1.50;1.00;;;22.40;29.80;;;;;;2257751;61;20900;-60
2023/11/15 04:56:28;0.00;0.00;0.62;0.00;0.00;0.62;2.50;1.73;;;22.40;29.80;;;;;;2257511;61;20790;-59
2023/11/15 04:59:13;0.00;0.00;0.62;0.00;0.00;0.62;2.50;1.47;;;22.40;29.80;;;;;;2252135;61;20386;-61
2023/11/15 05:01:58;0.00;0.00;0.62;0.00;0.00;0.62;2.40;1.50;;;22.40;29.80;;;;;;2257337;61;20365;-60
2023/11/15 05:04:42;0.00;0.00;0.62;0.00;0.00;0.62;2.50;1.60;;;22.40;29.80;;;;;;2258268;61;20382;-61
2023/11/15 05:07:27;0.00;0.00;0.62;0.00;0.00;0.62;3.80;2.27;;;22.40;29.80;;;;;;2258100;61;20346;-61
2023/11/15 05:10:13;0.00;0.00;0.62;0.00;0.00;0.62;2.50;1.77;;;22.40;29.80;;;;;;2257914;61;20911;-65
2023/11/15 05:12:59;0.00;0.00;0.62;0.00;0.00;0.62;1.93;1.37;;;22.40;29.90;;;;;;2257720;61;21031;-61
2023/11/15 05:15:44;0.00;0.00;0.62;0.00;0.00;0.62;1.90;1.10;;;22.40;29.80;;;;;;2258298;61;20370;-61
2023/11/15 05:18:28;0.00;0.00;0.62;0.00;0.00;0.62;2.30;1.23;;;22.40;29.80;;;;;;2257832;61;20366;-61
2023/11/15 05:21:12;0.00;0.00;0.62;0.00;0.00;0.62;2.30;1.57;;;22.40;29.80;;;;;;2254872;61;20386;-61
2023/11/15 05:23:57;0.00;0.00;0.62;0.00;0.00;0.62;2.70;1.30;;;22.40;29.80;;;;;;2254739;61;20365;-61
2023/11/15 05:26:43;0.00;0.00;0.62;0.00;0.00;0.62;2.67;1.37;;;22.30;29.80;;;;;;2257999;61;20433;-57
2023/11/15 05:29:30;0.00;0.00;0.62;0.00;0.00;0.62;1.90;1.10;;;22.40;29.80;;;;;;2258033;61;20451;-60
2023/11/15 05:32:14;0.00;0.00;0.62;0.00;0.00;0.62;1.90;1.20;;;22.40;29.80;;;;;;2257340;61;20366;-61
2023/11/15 05:34:59;0.00;0.00;0.62;0.00;0.00;0.62;1.80;1.20;;;22.40;29.80;;;;;;2258160;61;20365;-58
2023/11/15 05:37:43;0.00;0.00;0.62;0.00;0.00;0.62;1.97;1.10;;;22.40;29.80;;;;;;2258240;61;20374;-60
2023/11/15 05:40:28;0.00;0.00;0.62;0.00;0.00;0.62;1.77;1.07;;;22.30;29.80;;;;;;2254479;61;20394;-61
2023/11/15 05:43:14;0.00;0.00;0.62;0.00;0.00;0.62;2.87;1.43;;;22.30;29.80;;;;;;2254308;61;20492;-61
2023/11/15 05:45:59;0.00;0.00;0.62;0.00;0.00;0.62;2.13;1.30;;;22.30;29.80;;;;;;2258044;61;20397;-66
2023/11/15 05:48:43;0.00;0.00;0.62;0.00;0.00;0.62;1.97;1.03;;;22.30;29.80;;;;;;2254752;61;20420;-60
2023/11/15 05:51:28;0.00;0.00;0.62;0.00;0.00;0.62;1.83;0.97;;;22.30;29.80;;;;;;2258279;61;20378;-57
2023/11/15 05:54:14;0.00;0.00;0.62;0.00;0.00;0.62;2.00;1.20;;;22.30;29.80;;;;;;2257827;61;20366;-60
2023/11/15 05:56:59;0.00;0.00;0.62;0.00;0.00;0.62;2.30;1.10;;;22.30;29.80;;;;;;2254771;61;20421;-60
2023/11/15 05:59:45;0.00;0.00;0.62;0.00;0.00;0.62;1.73;0.90;;;22.30;29.80;;;;;;2254646;61;20420;-61
2023/11/15 06:02:31;0.00;0.00;0.62;0.00;0.00;0.62;2.00;1.10;;;22.30;29.80;;;;;;2257350;61;20389;-61
2023/11/15 06:05:18;0.00;0.00;0.62;0.00;0.00;0.62;1.90;1.30;;;22.30;29.80;;;;;;2257896;61;20432;-61
2023/11/15 06:08:03;0.00;0.00;0.62;0.00;0.00;0.62;1.90;1.13;;;22.30;29.80;;;;;;2257907;61;20389;-61
2023/11/15 06:10:48;0.00;0.00;0.62;0.00;0.00;0.62;1.87;1.07;;;22.30;29.80;;;;;;2258012;61;20425;-61
2023/11/15 06:13:36;0.00;0.00;0.62;0.00;0.00;0.62;2.20;1.30;;;22.30;29.80;;;;;;2251437;61;20448;-63
2023/11/15 06:16:24;0.00;0.00;0.62;0.00;0.00;0.62;2.20;1.30;;;22.30;29.80;;;;;;2257702;61;20409;-61
2023/11/15 06:19:09;0.00;0.00;0.62;0.00;0.00;0.62;2.20;1.03;;;22.30;29.80;;;;;;2257648;61;20365;-60
2023/11/15 06:21:54;0.00;0.00;0.62;0.00;0.00;0.62;1.60;1.00;;;22.30;29.80;;;;;;2257718;61;20420;-62
2023/11/15 06:24:40;0.00;0.00;0.62;0.00;0.00;0.62;2.27;1.20;;;22.30;29.80;;;;;;2254384;61;20417;-61
2023/11/15 06:27:25;0.00;0.00;0.62;0.00;0.00;0.62;1.37;0.77;;;22.30;29.80;;;;;;2255033;61;20369;-61
2023/11/15 06:30:12;0.00;0.00;0.62;0.00;0.00;0.62;1.77;1.00;;;22.30;29.80;;;;;;2258166;61;20378;-61
2023/11/15 06:32:58;0.00;0.00;0.62;0.00;0.00;0.62;1.87;1.20;;;22.30;29.80;;;;;;2257474;61;20767;-59
2023/11/15 06:35:44;0.00;0.00;0.62;0.00;0.00;0.62;1.90;0.90;;;22.30;29.80;;;;;;2257855;61;20365;-61
2023/11/15 06:38:29;0.00;0.00;0.62;0.00;0.00;0.62;1.63;1.00;;;22.30;29.80;;;;;;2254315;61;20373;-60
2023/11/15 06:41:15;0.00;0.00;0.62;0.00;0.00;0.62;1.80;1.20;;;22.30;29.80;;;;;;2258093;61;21100;-59
2023/11/15 06:43:59;0.00;0.00;0.62;0.00;0.00;0.62;3.10;1.10;;;22.30;29.80;;;;;;2257885;61;20437;-69
2023/11/15 06:46:44;0.00;0.00;0.62;0.00;0.00;0.62;1.73;1.00;;;22.30;29.80;;;;;;2257001;61;20912;-61
2023/11/15 06:49:30;0.00;0.00;0.62;0.00;0.00;0.62;2.13;1.00;;;22.30;29.80;;;;;;2257949;61;20409;-62
2023/11/15 06:52:15;0.00;0.00;0.62;0.00;0.00;0.62;1.60;0.80;;;22.30;29.80;;;;;;2257438;61;20769;-65
2023/11/15 06:55:02;0.00;0.00;0.62;0.00;0.00;0.62;2.30;1.10;;;22.30;29.80;;;;;;2257230;61;20365;-62
2023/11/15 06:57:47;0.00;0.00;0.62;0.00;0.00;0.62;1.70;1.07;;;22.30;29.80;;;;;;2254200;61;20413;-62
2023/11/15 07:00:33;0.00;0.00;0.62;0.00;0.00;0.62;1.80;1.00;;;22.30;29.80;;;;;;2257738;61;20485;-61
2023/11/15 07:03:17;0.00;0.00;0.62;0.00;0.00;0.62;1.60;0.87;;;22.30;29.80;;;;;;2257607;61;20365;-67
2023/11/15 07:06:05;0.00;0.00;0.62;0.00;0.00;0.62;2.10;1.17;;;22.30;29.80;;;;;;2254749;61;20397;-61
2023/11/15 07:08:50;0.00;0.00;0.62;0.00;0.00;0.62;1.47;0.87;;;22.30;29.80;;;;;;2254327;61;20398;-61
2023/11/15 07:11:35;0.00;0.00;0.62;0.00;0.00;0.62;2.33;1.27;;;22.30;30.30;;;;;;2257626;61;20424;-60
2023/11/15 07:14:20;0.00;0.00;0.62;0.00;0.00;0.62;1.73;1.20;;;22.30;29.80;;;;;;2257609;61;20365;-62
2023/11/15 07:17:07;0.00;0.00;0.62;0.00;0.00;0.62;2.00;1.20;;;22.30;29.80;;;;;;2257453;61;20418;-62
2023/11/15 07:19:52;0.00;0.00;0.62;0.00;0.00;0.62;2.20;1.37;;;22.30;29.90;;;;;;2257704;61;21042;-63
2023/11/15 07:22:38;0.00;0.00;0.62;0.00;0.00;0.62;1.87;1.23;;;22.20;29.80;;;;;;2256960;61;20416;-61
2023/11/15 07:25:23;0.00;0.00;0.62;0.00;0.00;0.62;3.20;1.40;;;22.30;29.80;;;;;;2258099;61;21130;-63
2023/11/15 07:28:09;0.00;0.00;0.62;0.00;0.00;0.62;2.30;1.53;;;22.30;29.80;;;;;;2258336;61;20413;-61
2023/11/15 07:30:55;0.00;0.00;0.62;0.00;0.00;0.62;2.70;1.40;;;22.30;29.80;;;;;;2257994;61;20397;-62
2023/11/15 07:33:40;0.00;0.00;0.62;0.00;0.00;0.62;1.80;1.23;;;22.30;29.90;;;;;;2254850;61;20922;-62
2023/11/15 07:36:27;0.00;0.00;0.62;0.00;0.00;0.62;2.10;1.30;;;22.30;29.90;;;;;;2258063;61;20389;-62
2023/11/15 07:39:13;0.00;0.00;0.62;0.00;0.00;0.62;2.30;1.27;;;22.30;29.90;;;;;;2258512;61;20373;-59
2023/11/15 07:41:59;0.00;0.00;0.62;0.00;0.00;0.62;2.67;1.70;;;22.30;29.90;;;;;;2258505;61;20381;-62
2023/11/15 07:44:45;0.00;0.00;0.62;0.00;0.00;0.62;1.90;1.20;;;22.30;29.90;;;;;;2255229;61;20421;-61
2023/11/15 07:47:31;0.00;0.00;0.62;0.00;0.00;0.62;2.57;1.40;;;22.20;29.80;;;;;;2258445;61;20456;-60
2023/11/15 07:50:17;0.00;0.00;0.62;0.00;0.00;0.62;2.30;1.33;;;22.30;29.90;;;;;;2258091;61;20432;-61
2023/11/15 07:53:02;0.00;0.00;0.62;0.00;0.00;0.62;2.10;1.20;;;22.30;29.90;;;;;;2257689;61;20404;-60
2023/11/15 07:55:48;0.00;0.00;0.62;0.00;0.00;0.62;2.33;1.57;;;22.20;29.80;;;;;;2258307;61;20365;-61
2023/11/15 07:58:33;0.00;0.00;0.62;0.00;0.00;0.62;3.13;1.50;;;22.30;29.90;;;;;;2258490;61;20774;-61
2023/11/15 08:01:18;0.00;0.00;0.62;0.00;0.00;0.62;2.67;1.70;;;22.20;29.80;;;;;;2257760;61;20432;-61
2023/11/15 08:04:03;0.00;0.00;0.62;0.00;0.00;0.62;2.07;1.50;;;22.30;29.90;;;;;;2258216;61;20876;-62
2023/11/15 08:06:49;0.00;0.00;0.62;0.00;0.00;0.62;3.43;1.93;;;22.20;29.80;;;;;;2258022;61;20421;-62
2023/11/15 08:09:33;0.00;0.00;0.62;0.00;0.00;0.62;2.13;1.57;;;22.20;29.80;;;;;;2258222;61;20393;-60
2023/11/15 08:12:20;0.00;0.00;0.62;0.00;0.00;0.62;3.00;1.77;;;22.20;29.80;;;;;;2258200;61;20386;-61
2023/11/15 08:15:07;0.00;0.00;0.62;0.00;0.00;0.62;1.83;1.30;;;22.30;29.90;;;;;;2257330;61;20366;-60
2023/11/15 08:17:52;0.00;0.00;0.62;0.00;0.00;0.62;2.00;1.50;;;22.30;29.90;;;;;;2258466;61;20834;-62
2023/11/15 08:20:37;0.00;0.00;0.62;0.00;0.00;0.62;3.30;2.00;;;22.30;29.90;;;;;;2258131;61;20382;-59
2023/11/15 08:23:23;0.00;0.00;0.62;0.00;0.00;0.62;2.67;2.10;;;22.30;29.90;;;;;;2257371;61;20393;-61
2023/11/15 08:26:08;0.00;0.00;0.62;0.00;0.00;0.62;2.47;1.57;;;22.20;29.80;;;;;;2258288;61;20394;-59
2023/11/15 08:28:54;0.00;0.00;0.62;0.00;0.00;0.62;2.20;1.50;;;22.20;29.80;;;;;;2258315;61;20361;-61
2023/11/15 08:31:38;0.00;0.00;0.62;0.00;0.00;0.62;2.10;1.53;;;22.20;29.80;;;;;;2257704;61;20374;-61
2023/11/15 08:34:24;0.00;0.00;0.62;0.00;0.00;0.62;2.33;1.60;;;22.30;29.90;;;;;;2258420;61;20942;-61
2023/11/15 08:37:08;0.00;0.00;0.62;0.00;0.00;0.62;2.53;1.63;;;22.30;29.90;;;;;;2257543;61;20425;-62
2023/11/15 08:39:53;0.00;0.00;0.62;0.00;0.00;0.62;2.70;1.83;;;22.30;29.90;;;;;;2257903;61;20482;-60
2023/11/15 08:42:38;0.00;0.00;0.62;0.00;0.00;0.62;2.80;1.80;;;22.20;29.80;;;;;;2257855;61;20450;-61
2023/11/15 08:45:24;0.00;0.00;0.62;0.00;0.00;0.62;2.70;1.90;;;22.30;29.90;;;;;;2257941;61;20382;-65
2023/11/15 08:48:08;0.00;0.00;0.62;0.00;0.00;0.62;2.10;1.63;;;22.20;29.80;;;;;;2257668;61;20911;-61
2023/11/15 08:50:54;0.00;0.00;0.62;0.00;0.00;0.62;2.80;1.80;;;22.20;29.80;;;;;;2258460;61;20382;-59
2023/11/15 08:53:41;0.00;0.00;0.62;0.00;0.00;0.62;2.17;1.53;;;22.20;29.80;;;;;;2257819;61;20417;-62
2023/11/15 08:56:25;0.00;0.00;0.62;0.00;0.00;0.62;2.67;1.97;;;22.20;29.80;;;;;;2257589;61;20354;-60
2023/11/15 08:59:18;0.00;0.00;0.62;0.00;0.00;0.62;2.47;1.60;;;22.20;29.80;;;;;;2257558;61;20932;-61
2023/11/15 09:02:05;0.00;0.00;0.62;0.00;0.00;0.62;2.73;1.77;;;22.20;29.80;;;;;;2258064;61;20424;-61
2023/11/15 09:04:53;0.00;0.00;0.62;0.00;0.00;0.62;2.67;1.50;;;22.20;29.80;;;;;;2257681;61;20389;-60
2023/11/15 09:07:39;0.00;0.00;0.62;0.00;0.00;0.62;2.30;1.50;;;22.20;29.90;;;;;;2257347;61;20413;-61
2023/11/15 09:10:23;0.00;0.00;0.62;0.00;0.00;0.62;3.17;1.63;;;22.20;29.90;;;;;;2258143;61;20386;-62
2023/11/15 09:13:08;0.00;0.00;0.62;0.00;0.00;0.62;2.23;1.57;;;22.20;29.90;;;;;;2254536;61;20911;-62
2023/11/15 09:15:53;0.00;0.00;0.62;0.00;0.00;0.62;2.10;1.50;;;22.30;29.90;;;;;;2257922;61;20354;-63
2023/11/15 09:18:42;0.00;0.00;0.62;0.00;0.00;0.62;2.17;1.57;;;22.20;29.90;;;;;;2257859;61;20354;-61
2023/11/15 09:21:28;0.00;0.00;0.62;0.00;0.00;0.62;1.90;1.40;;;22.20;29.80;;;;;;2257580;61;20396;-62
2023/11/15 09:24:18;0.00;0.00;0.62;0.00;0.00;0.62;1.90;1.20;;;22.30;29.90;;;;;;2258037;61;20887;-61
2023/11/15 09:27:03;0.00;0.00;0.62;0.00;0.00;0.62;3.60;1.70;;;22.30;29.90;;;;;;2257820;61;20374;-60
2023/11/15 09:29:50;0.00;0.00;0.62;0.00;0.00;0.62;2.50;1.60;;;22.20;29.90;;;;;;2257605;61;20437;-60
2023/11/15 09:32:35;0.00;0.00;0.62;0.00;0.00;0.62;2.30;1.43;;;22.20;29.90;;;;;;2257511;61;20374;-62
2023/11/15 09:35:27;0.00;0.00;0.62;0.00;0.00;0.62;1.80;1.20;;;22.20;29.90;;;;;;2258097;61;20382;-61
2023/11/15 09:38:13;0.00;0.00;0.62;0.00;0.00;0.62;2.47;1.53;;;22.20;29.90;;;;;;2257670;61;20373;-61
2023/11/15 09:41:00;0.00;0.00;0.62;0.00;0.00;0.62;2.27;1.43;;;22.20;29.90;;;;;;2257888;61;20520;-59
2023/11/15 09:43:55;0.00;0.00;0.62;0.00;0.00;0.62;2.83;1.40;;;22.30;29.90;;;;;;2257245;61;20462;-67
2023/11/15 09:46:40;0.00;0.00;0.62;0.00;0.00;0.62;2.07;1.20;;;22.20;29.90;;;;;;2257360;61;20389;-57
2023/11/15 09:49:26;0.00;0.00;0.62;0.00;0.00;0.62;2.30;1.53;;;22.30;29.90;;;;;;2257558;61;20405;-61
2023/11/15 09:52:13;0.00;0.00;0.62;0.00;0.00;0.62;2.43;1.30;;;22.30;29.90;;;;;;2257202;61;20377;-60
2023/11/15 09:55:01;0.00;0.00;0.62;0.00;0.00;0.62;2.87;1.53;;;22.20;29.90;;;;;;2257226;61;20378;-61
2023/11/15 09:57:46;0.00;0.00;0.62;0.00;0.00;0.62;2.10;1.20;;;22.20;29.90;;;;;;2257796;61;20365;-61
2023/11/15 10:00:32;0.00;0.00;0.62;0.00;0.00;0.62;2.40;1.47;;;22.20;29.90;;;;;;2257868;61;20464;-66
2023/11/15 10:03:19;0.00;0.00;0.62;0.00;0.00;0.62;1.80;1.17;;;22.20;29.90;;;;;;2257194;61;20434;-62
2023/11/15 10:06:07;0.00;0.00;0.62;0.00;0.00;0.62;2.40;1.70;;;22.20;29.90;;;;;;2257255;61;20940;-60
2023/11/15 10:08:54;0.00;0.00;0.62;0.00;0.00;0.62;2.30;1.40;;;22.20;29.90;;;;;;2257701;61;20465;-61
2023/11/15 10:11:46;0.00;0.00;0.62;0.00;0.00;0.62;2.30;1.57;;;22.20;29.90;;;;;;2257165;61;20508;-61
2023/11/15 10:14:32;0.00;0.00;0.62;0.00;0.00;0.62;2.10;1.20;;;22.30;30.00;;;;;;2257045;61;20362;-60
2023/11/15 10:17:17;0.00;0.00;0.62;0.00;0.00;0.62;2.73;1.40;;;22.30;30.00;;;;;;2257591;61;20444;-61
2023/11/15 10:20:17;0.00;0.00;0.62;0.00;0.00;0.62;1.80;1.17;;;22.20;29.90;;;;;;2257549;61;20474;-60
2023/11/15 10:23:02;0.00;0.00;0.62;0.00;0.00;0.62;1.93;1.33;;;22.30;30.00;;;;;;2257437;61;20421;-62
2023/11/15 10:25:55;0.00;0.00;0.62;0.00;0.00;0.62;2.47;1.57;;;22.30;30.00;;;;;;2257576;61;20389;-61
2023/11/15 10:28:40;0.00;0.00;0.62;0.00;0.00;0.62;2.83;1.60;;;22.30;30.00;;;;;;2257359;61;20397;-62
2023/11/15 10:31:25;0.00;0.00;0.62;0.00;0.00;0.62;2.50;1.63;;;22.30;30.00;;;;;;2257646;61;20416;-61
2023/11/15 10:34:13;0.00;0.00;0.62;0.00;0.00;0.62;2.50;1.40;;;22.30;30.00;;;;;;2257993;61;20373;-61
2023/11/15 10:37:07;0.00;0.00;0.62;0.00;0.00;0.62;2.13;1.23;;;22.20;30.00;;;;;;2257289;61;20406;-61
2023/11/15 10:39:52;0.00;0.00;0.62;0.00;0.00;0.62;3.20;1.40;;;22.30;30.00;;;;;;2257403;61;20429;-62
2023/11/15 10:42:40;0.00;0.00;0.62;0.00;0.00;0.62;3.00;1.40;;;22.30;30.00;;;;;;2256975;61;20413;-60
2023/11/15 10:45:27;0.00;0.00;0.62;0.00;0.00;0.62;2.43;1.77;;;22.30;30.00;;;;;;2257768;61;20440;-61
2023/11/15 10:48:17;0.00;0.00;0.62;0.00;0.00;0.62;2.07;1.50;;;22.20;29.90;;;;;;2257933;61;20564;-59
2023/11/15 10:51:06;0.00;0.00;0.62;0.00;0.00;0.62;2.27;1.57;;;22.30;30.00;;;;;;2257327;61;20398;-61
2023/11/15 10:53:52;0.00;0.00;0.62;0.00;0.00;0.62;2.60;1.60;;;22.30;30.00;;;;;;2257600;61;20911;-61